createdAt,value
2019-04-05T00:01:32.324Z,100596.48
2019-04-05T00:04:04.521Z,100598.23
2019-04-05T00:06:35.358Z,100595.96
2019-04-05T00:09:07.798Z,100598.73
2019-04-05T00:11:38.584Z,100602.61
2019-04-05T00:14:09.600Z,100601.66
2019-04-05T00:16:40.317Z,100600.80
2019-04-05T00:19:10.849Z,100601.62
2019-04-05T00:21:41.515Z,100595.55
2019-04-05T00:24:12.287Z,100595.55
2019-04-05T00:26:43.222Z,100591.64
2019-04-05T00:29:15.806Z,100592.66
2019-04-05T00:31:46.743Z,100589.00
2019-04-05T00:34:17.416Z,100579.89
2019-04-05T00:36:48.036Z,100590.48
2019-04-05T00:39:19.016Z,100598.58
2019-04-05T00:41:49.631Z,100598.58
2019-04-05T00:44:19.960Z,100587.83
2019-04-05T00:46:50.576Z,100587.83
2019-04-05T00:49:21.634Z,100583.33
2019-04-05T00:51:52.424Z,100586.05
2019-04-05T00:54:23.473Z,100583.66
2019-04-05T00:56:54.322Z,100582.61
2019-04-05T00:59:24.709Z,100589.13
2019-04-05T01:01:55.600Z,100587.72
2019-04-05T01:04:27.365Z,100584.88
2019-04-05T01:06:59.114Z,100587.73
2019-04-05T01:09:29.944Z,100579.56
2019-04-05T01:12:00.807Z,100578.46
2019-04-05T01:14:31.820Z,100572.13
2019-04-05T01:17:02.638Z,100582.69
2019-04-05T01:19:35.735Z,100574.28
2019-04-05T01:22:08.692Z,100568.39
2019-04-05T01:24:39.395Z,100568.39
2019-04-05T01:27:10.238Z,100570.23
2019-04-05T01:29:40.589Z,100559.13
2019-04-05T01:32:10.952Z,100559.13
2019-04-05T01:34:41.554Z,100569.76
2019-04-05T01:37:11.894Z,100568.52
2019-04-05T01:39:42.214Z,100561.59
2019-04-05T01:42:12.632Z,100570.44
2019-04-05T01:44:43.769Z,100564.02
2019-04-05T01:47:14.112Z,100565.72
2019-04-05T01:49:44.461Z,100563.53
2019-04-05T01:52:15.079Z,100556.95
2019-04-05T01:54:45.648Z,100554.34
2019-04-05T01:57:15.988Z,100552.57
2019-04-05T01:59:47.048Z,100548.41
2019-04-05T02:02:17.388Z,100540.92
2019-04-05T02:04:47.914Z,100542.33
2019-04-05T02:07:18.371Z,100544.84
2019-04-05T02:09:49.123Z,100537.94
2019-04-05T02:12:19.479Z,100534.39
2019-04-05T02:14:49.919Z,100534.39
2019-04-05T02:17:20.278Z,100537.84
2019-04-05T02:19:50.577Z,100545.13
2019-04-05T02:22:20.935Z,100547.23
2019-04-05T02:24:51.295Z,100547.66
2019-04-05T02:27:21.697Z,100562.61
2019-04-05T02:29:52.196Z,100562.61
2019-04-05T02:32:22.548Z,100568.34
2019-04-05T02:34:52.817Z,100563.45
2019-04-05T02:37:23.179Z,100567.50
2019-04-05T02:39:53.673Z,100567.12
2019-04-05T02:42:24.577Z,100573.33
2019-04-05T02:44:56.026Z,100571.80
2019-04-05T02:47:27.490Z,100573.95
2019-04-05T02:49:59.362Z,100571.59
2019-04-05T02:52:30.783Z,100571.16
2019-04-05T02:55:02.847Z,100572.83
2019-04-05T02:57:35.562Z,100571.52
2019-04-05T03:00:08.757Z,100569.30
2019-04-05T03:02:39.562Z,100574.20
2019-04-05T03:05:10.580Z,100574.20
2019-04-05T03:07:41.320Z,100570.66
2019-04-05T03:10:15.475Z,100571.27
2019-04-05T03:12:46.273Z,100565.47
2019-04-05T03:15:17.092Z,100564.68
2019-04-05T03:17:48.064Z,100570.13
2019-04-05T03:20:19.074Z,100576.83
2019-04-05T03:22:49.761Z,100576.83
2019-04-05T03:25:20.612Z,100579.33
2019-04-05T03:27:51.553Z,100574.36
2019-04-05T03:30:42.369Z,100578.01
2019-04-05T03:33:12.905Z,100578.01
2019-04-05T03:35:43.417Z,100578.92
2019-04-05T03:38:14.232Z,100581.35
2019-04-05T03:40:45.646Z,100583.61
2019-04-05T03:43:16.365Z,100578.44
2019-04-05T03:45:47.414Z,100573.16
2019-04-05T03:48:18.263Z,100573.16
2019-04-05T03:50:49.057Z,100574.94
2019-04-05T03:53:19.699Z,100575.61
2019-04-05T03:55:51.268Z,100582.83
2019-04-05T03:58:22.217Z,100582.66
2019-04-05T04:00:52.808Z,100581.23
2019-04-05T04:03:23.293Z,100586.13
2019-04-05T04:05:53.592Z,100587.77
2019-04-05T04:08:25.539Z,100581.83
2019-04-05T04:10:56.970Z,100593.65
2019-04-05T04:13:27.720Z,100584.45
2019-04-05T04:15:58.216Z,100592.24
2019-04-05T04:18:28.731Z,100586.70
2019-04-05T04:21:02.795Z,100586.03
2019-04-05T04:23:33.988Z,100586.98
2019-04-05T04:26:04.683Z,100591.27
2019-04-05T04:28:35.211Z,100592.39
2019-04-05T04:31:05.767Z,100592.39
2019-04-05T04:33:36.435Z,100590.05
2019-04-05T04:36:06.929Z,100593.06
2019-04-05T04:38:38.586Z,100595.63
2019-04-05T04:41:09.516Z,100595.63
2019-04-05T04:43:40.887Z,100598.86
2019-04-05T04:46:11.635Z,100598.86
2019-04-05T04:48:42.836Z,100602.63
2019-04-05T04:51:14.111Z,100602.63
2019-04-05T04:53:45.718Z,100593.91
2019-04-05T04:56:16.286Z,100602.84
2019-04-05T04:58:46.944Z,100599.47
2019-04-05T05:01:17.975Z,100599.47
2019-04-05T05:03:49.047Z,100600.86
2019-04-05T05:06:19.913Z,100600.86
2019-04-05T05:08:52.037Z,100598.25
2019-04-05T05:11:22.442Z,100593.77
2019-04-05T05:13:53.183Z,100597.49
2019-04-05T05:16:24.482Z,100597.49
2019-04-05T05:18:55.379Z,100603.67
2019-04-05T05:21:26.591Z,100604.52
2019-04-05T05:23:59.067Z,100593.77
2019-04-05T05:26:30.611Z,100593.77
2019-04-05T05:29:01.537Z,100604.06
2019-04-05T05:31:32.716Z,100608.49
2019-04-05T05:34:03.430Z,100608.49
2019-04-05T05:36:34.335Z,100610.13
2019-04-05T05:39:06.489Z,100613.55
2019-04-05T05:41:36.855Z,100606.56
2019-04-05T05:44:07.336Z,100614.59
2019-04-05T05:46:37.778Z,100608.09
2019-04-05T05:49:08.170Z,100609.00
2019-04-05T05:51:39.364Z,100607.16
2019-04-05T05:54:09.792Z,100609.20
2019-04-05T05:56:40.088Z,100615.52
2019-04-05T05:59:10.435Z,100620.96
2019-04-05T06:01:40.827Z,100617.78
2019-04-05T06:04:12.765Z,100618.14
2019-04-05T06:06:43.279Z,100613.20
2019-04-05T06:09:14.035Z,100617.94
2019-04-05T06:11:44.295Z,100615.36
2019-04-05T06:14:14.599Z,100615.42
2019-04-05T06:16:46.642Z,100614.61
2019-04-05T06:19:17.153Z,100619.69
2019-04-05T06:21:47.484Z,100617.73
2019-04-05T06:24:18.093Z,100621.59
2019-04-05T06:26:49.315Z,100626.62
2019-04-05T06:29:19.994Z,100626.72
2019-04-05T06:31:50.638Z,100634.55
2019-04-05T06:34:22.607Z,100635.81
2019-04-05T06:36:53.281Z,100637.62
2019-04-05T06:39:24.050Z,100639.12
2019-04-05T06:41:54.964Z,100639.88
2019-04-05T06:44:27.822Z,100638.97
2019-04-05T06:46:58.012Z,100637.00
2019-04-05T06:49:28.639Z,100637.00
2019-04-05T06:51:59.179Z,100643.22
2019-04-05T06:54:29.846Z,100635.28
2019-04-05T06:57:00.555Z,100633.30
2019-04-05T06:59:31.193Z,100643.06
2019-04-05T07:02:10.745Z,100643.19
2019-04-05T07:04:41.411Z,100641.34
2019-04-05T07:07:12.449Z,100642.17
2019-04-05T07:09:43.297Z,100646.23
2019-04-05T07:12:13.938Z,100663.14
2019-04-05T07:14:44.375Z,100661.30
2019-04-05T07:17:15.038Z,100657.87
2019-04-05T07:19:45.512Z,100657.37
2019-04-05T07:22:15.783Z,100665.17
2019-04-05T07:24:49.538Z,100663.13
2019-04-05T07:27:20.240Z,100661.83
2019-04-05T07:29:51.148Z,100666.70
2019-04-05T07:32:22.089Z,100661.50
2019-04-05T07:34:52.858Z,100668.24
2019-04-05T07:37:23.453Z,100667.88
2019-04-05T07:39:54.102Z,100674.91
2019-04-05T07:42:24.463Z,100672.90
2019-04-05T07:44:54.905Z,100676.44
2019-04-05T07:47:25.223Z,100682.39
2019-04-05T07:49:55.436Z,100674.59
2019-04-05T07:52:25.850Z,100672.88
2019-04-05T07:54:56.240Z,100673.57
2019-04-05T07:57:26.677Z,100674.92
2019-04-05T07:59:57.104Z,100674.45
2019-04-05T08:02:27.462Z,100673.55
2019-04-05T08:04:57.913Z,100677.37
2019-04-05T08:07:32.162Z,100679.48
2019-04-05T08:10:03.175Z,100679.47
2019-04-05T08:12:33.984Z,100676.59
2019-04-05T08:15:04.910Z,100681.41
2019-04-05T08:17:35.176Z,100671.39
2019-04-05T08:20:05.756Z,100667.89
2019-04-05T08:22:36.229Z,100675.13
2019-04-05T08:25:06.861Z,100672.19
2019-04-05T08:27:37.318Z,100667.88
2019-04-05T08:30:08.899Z,100664.38
2019-04-05T08:32:39.212Z,100667.56
2019-04-05T08:35:09.518Z,100665.59
2019-04-05T08:37:39.978Z,100673.55
2019-04-05T08:40:10.940Z,100666.17
2019-04-05T08:42:41.340Z,100663.25
2019-04-05T08:45:12.043Z,100662.76
2019-04-05T08:47:42.449Z,100664.66
2019-04-05T08:50:12.857Z,100657.98
2019-04-05T08:52:43.241Z,100659.45
2019-04-05T08:55:13.889Z,100661.60
2019-04-05T08:57:44.231Z,100665.09
2019-04-05T09:00:15.048Z,100665.55
2019-04-05T09:02:45.517Z,100661.88
2019-04-05T09:05:16.271Z,100668.27
2019-04-05T09:07:47.095Z,100664.28
2019-04-05T09:10:17.558Z,100662.11
2019-04-05T09:12:48.379Z,100657.97
2019-04-05T09:15:19.207Z,100664.17
2019-04-05T09:17:49.608Z,100666.45
2019-04-05T09:20:19.982Z,100665.33
2019-04-05T09:22:50.388Z,100667.59
2019-04-05T09:25:21.990Z,100668.58
2019-04-05T09:27:52.586Z,100666.08
2019-04-05T09:30:23.745Z,100662.97
2019-04-05T09:32:54.269Z,100664.25
2019-04-05T09:35:24.781Z,100662.52
2019-04-05T09:37:57.105Z,100660.20
2019-04-05T09:40:27.937Z,100659.46
2019-04-05T09:42:58.319Z,100663.94
2019-04-05T09:45:28.794Z,100663.50
2019-04-05T09:47:59.586Z,100662.59
2019-04-05T09:50:30.248Z,100654.00
2019-04-05T09:53:01.190Z,100655.97
2019-04-05T09:55:31.865Z,100653.65
2019-04-05T09:58:02.609Z,100646.36
2019-04-05T10:00:33.326Z,100652.16
